createdAt,value
2023-03-13T00:02:19.646Z,55.15
2023-03-13T00:05:25.735Z,55.86
2023-03-13T00:08:33.171Z,56.41
2023-03-13T00:11:39.254Z,56.11
2023-03-13T00:14:44.972Z,56.73
2023-03-13T00:17:50.875Z,56.92
2023-03-13T00:21:02.652Z,56.79
2023-03-13T00:24:11.516Z,57.21
2023-03-13T00:27:17.829Z,57.35
2023-03-13T00:30:22.149Z,57.57
2023-03-13T00:33:28.006Z,57.30
2023-03-13T00:36:35.907Z,57.90
2023-03-13T00:39:41.768Z,58.02
2023-03-13T00:42:47.724Z,58.40
2023-03-13T00:45:53.632Z,58.59
2023-03-13T00:48:59.538Z,59.01
2023-03-13T00:52:05.500Z,59.00
2023-03-13T00:55:12.647Z,59.45
2023-03-13T00:58:18.647Z,59.87
2023-03-13T01:01:26.347Z,59.66
2023-03-13T01:04:32.103Z,60.10
2023-03-13T01:07:38.032Z,60.22
2023-03-13T01:10:43.774Z,60.42
2023-03-13T01:13:50.573Z,61.00
2023-03-13T01:16:56.479Z,61.27
2023-03-13T01:20:02.434Z,61.45
2023-03-13T01:23:09.021Z,61.61
2023-03-13T01:26:15.204Z,61.66
2023-03-13T01:29:21.018Z,63.26
2023-03-13T01:32:26.906Z,65.70
2023-03-13T01:35:32.742Z,65.50
2023-03-13T01:38:39.050Z,64.14
2023-03-13T01:41:43.213Z,63.23
2023-03-13T01:44:56.239Z,63.00
2023-03-13T01:48:02.119Z,61.84
2023-03-13T01:51:13.208Z,59.78
2023-03-13T01:54:23.043Z,58.44
2023-03-13T01:57:32.224Z,58.50
2023-03-13T02:00:42.689Z,59.00
2023-03-13T02:03:50.244Z,59.76
2023-03-13T02:06:59.573Z,60.53
2023-03-13T02:10:06.220Z,60.84
2023-03-13T02:13:15.357Z,61.78
2023-03-13T02:16:22.588Z,63.72
2023-03-13T02:19:35.880Z,65.25
2023-03-13T02:22:52.082Z,64.20
2023-03-13T02:25:56.325Z,62.96
2023-03-13T02:29:02.373Z,62.54
2023-03-13T02:32:10.570Z,60.74
2023-03-13T02:35:18.841Z,58.69
2023-03-13T02:38:28.529Z,58.05
2023-03-13T02:41:36.242Z,58.41
2023-03-13T02:44:42.906Z,58.98
2023-03-13T02:47:48.759Z,59.44
2023-03-13T02:50:54.622Z,60.07
2023-03-13T02:54:03.357Z,60.54
2023-03-13T02:57:09.539Z,61.32
2023-03-13T03:00:17.350Z,61.60
2023-03-13T03:03:23.176Z,62.02
2023-03-13T03:06:29.135Z,63.60
2023-03-13T03:09:34.990Z,64.01
2023-03-13T03:12:40.849Z,63.40
2023-03-13T03:15:46.701Z,62.62
2023-03-13T03:18:52.572Z,61.40
2023-03-13T03:21:58.354Z,59.51
2023-03-13T03:25:04.884Z,58.60
2023-03-13T03:28:10.838Z,59.10
2023-03-13T03:31:18.226Z,59.47
2023-03-13T03:34:24.532Z,60.22
2023-03-13T03:37:30.352Z,60.83
2023-03-13T03:40:36.209Z,61.22
2023-03-13T03:43:42.415Z,61.82
2023-03-13T03:46:48.273Z,63.05
2023-03-13T03:49:54.396Z,64.87
2023-03-13T03:53:00.250Z,64.13
2023-03-13T03:56:07.453Z,63.12
2023-03-13T03:59:13.300Z,62.24
2023-03-13T04:02:19.189Z,61.44
2023-03-13T04:05:25.216Z,59.78
2023-03-13T04:08:31.484Z,58.69
2023-03-13T04:11:37.444Z,59.39
2023-03-13T04:14:43.220Z,60.03
2023-03-13T04:17:48.954Z,60.78
2023-03-13T04:21:03.565Z,61.69
2023-03-13T04:24:10.606Z,62.82
2023-03-13T04:27:16.480Z,64.84
2023-03-13T04:30:22.238Z,64.28
2023-03-13T04:33:28.372Z,63.30
2023-03-13T04:36:34.118Z,62.20
2023-03-13T04:39:39.882Z,60.75
2023-03-13T04:42:45.736Z,59.89
2023-03-13T04:45:54.729Z,58.76
2023-03-13T04:49:00.659Z,59.22
2023-03-13T04:52:07.147Z,60.18
2023-03-13T04:55:13.469Z,60.99
2023-03-13T04:58:17.793Z,61.78
2023-03-13T05:01:23.888Z,62.06
2023-03-13T05:04:29.904Z,63.57
2023-03-13T05:07:35.780Z,64.35
2023-03-13T05:10:43.059Z,64.55
2023-03-13T05:13:48.859Z,62.91
2023-03-13T05:16:54.665Z,62.27
2023-03-13T05:20:00.419Z,61.93
2023-03-13T05:23:06.181Z,61.56
2023-03-13T05:26:12.339Z,61.60
2023-03-13T05:29:18.298Z,61.07
2023-03-13T05:32:24.302Z,60.69
2023-03-13T05:35:30.416Z,60.81
2023-03-13T05:38:36.312Z,60.64
2023-03-13T05:41:42.136Z,58.86
2023-03-13T05:44:47.879Z,58.34
2023-03-13T05:47:53.863Z,59.40
2023-03-13T05:50:59.707Z,60.45
2023-03-13T05:54:05.896Z,61.65
2023-03-13T05:57:11.726Z,63.43
2023-03-13T06:00:19.777Z,64.13
2023-03-13T06:03:25.541Z,63.33
2023-03-13T06:06:31.538Z,62.05
2023-03-13T06:09:37.395Z,62.10
2023-03-13T06:12:43.250Z,61.31
2023-03-13T06:15:55.513Z,60.78
2023-03-13T06:19:02.444Z,59.73
2023-03-13T06:22:08.499Z,59.06
2023-03-13T06:25:14.971Z,60.50
2023-03-13T06:28:21.049Z,61.05
2023-03-13T06:31:26.840Z,62.93
2023-03-13T06:34:32.950Z,63.26
2023-03-13T06:37:39.038Z,62.52
2023-03-13T06:40:46.403Z,61.61
2023-03-13T06:43:53.696Z,60.55
2023-03-13T06:46:59.624Z,60.65
2023-03-13T06:50:06.080Z,59.85
2023-03-13T06:53:15.442Z,59.12
2023-03-13T06:56:22.128Z,59.26
2023-03-13T06:59:28.288Z,60.75
2023-03-13T07:02:34.172Z,62.13
2023-03-13T07:05:40.020Z,62.81
2023-03-13T07:08:46.002Z,62.43
2023-03-13T07:11:51.729Z,61.35
2023-03-13T07:14:57.485Z,60.45
2023-03-13T07:18:03.228Z,60.03
2023-03-13T07:21:10.970Z,59.18
2023-03-13T07:24:16.970Z,59.42
2023-03-13T07:27:23.333Z,60.74
2023-03-13T07:30:27.626Z,61.69
2023-03-13T07:33:33.549Z,62.39
2023-03-13T07:36:41.660Z,62.42
2023-03-13T07:39:47.725Z,61.68
2023-03-13T07:42:53.581Z,60.39
2023-03-13T07:46:01.573Z,60.22
2023-03-13T07:49:07.384Z,59.06
2023-03-13T07:52:13.127Z,59.19
2023-03-13T07:55:19.177Z,60.12
2023-03-13T07:58:25.863Z,60.92
2023-03-13T08:01:31.891Z,61.91
2023-03-13T08:04:37.645Z,62.68
2023-03-13T08:07:45.289Z,62.20
2023-03-13T08:10:51.024Z,60.92
2023-03-13T08:13:57.947Z,59.36
2023-03-13T08:17:03.963Z,59.10
2023-03-13T08:20:12.418Z,60.21
2023-03-13T08:23:18.310Z,60.74
2023-03-13T08:26:26.430Z,60.91
2023-03-13T08:29:32.274Z,61.46
2023-03-13T08:32:38.517Z,61.38
2023-03-13T08:35:44.714Z,61.49
2023-03-13T08:38:50.902Z,61.40
2023-03-13T08:41:56.827Z,61.51
2023-03-13T08:45:02.586Z,61.48
2023-03-13T08:48:09.139Z,61.59
2023-03-13T08:51:16.433Z,61.46
2023-03-13T08:54:22.408Z,61.49
2023-03-13T08:57:28.380Z,61.28
2023-03-13T09:00:34.211Z,60.93
2023-03-13T09:03:40.798Z,60.71
2023-03-13T09:06:46.861Z,60.75
2023-03-13T09:09:52.828Z,60.52
2023-03-13T09:12:58.845Z,60.67
2023-03-13T09:16:08.431Z,60.47
2023-03-13T09:19:14.485Z,60.39
2023-03-13T09:22:20.445Z,60.25
2023-03-13T09:25:26.305Z,60.21
2023-03-13T09:28:32.271Z,60.20
2023-03-13T09:31:38.930Z,59.97
2023-03-13T09:34:44.892Z,59.93
2023-03-13T09:37:50.742Z,59.84
2023-03-13T09:41:06.178Z,59.49
2023-03-13T09:44:20.382Z,59.48
2023-03-13T09:47:31.425Z,59.41
2023-03-13T09:50:41.927Z,59.00
2023-03-13T09:53:53.109Z,58.83
2023-03-13T09:57:02.240Z,58.80
2023-03-13T10:00:13.653Z,58.41
2023-03-13T10:03:25.027Z,57.77
2023-03-13T10:06:34.655Z,57.81
2023-03-13T10:09:42.468Z,57.06
2023-03-13T10:12:54.170Z,56.47
2023-03-13T10:16:03.154Z,56.11
2023-03-13T10:19:16.821Z,55.90
2023-03-13T10:22:26.773Z,55.89
2023-03-13T10:25:35.935Z,55.14
2023-03-13T10:28:41.763Z,54.30
2023-03-13T10:31:54.956Z,54.37
2023-03-13T10:35:03.391Z,53.99
2023-03-13T10:38:13.665Z,53.36
2023-03-13T10:41:28.028Z,53.08
2023-03-13T10:44:35.500Z,52.88
2023-03-13T10:47:41.324Z,52.51
2023-03-13T10:50:49.927Z,52.10
2023-03-13T10:53:56.058Z,51.99
2023-03-13T10:57:25.870Z,51.48
2023-03-13T11:00:38.817Z,51.02
2023-03-13T11:03:45.581Z,51.48
2023-03-13T11:06:59.431Z,50.94
2023-03-13T11:10:19.941Z,50.64
2023-03-13T11:13:37.330Z,50.73
2023-03-13T11:16:50.550Z,50.45
2023-03-13T11:20:16.183Z,49.53
2023-03-13T11:23:29.128Z,49.99
2023-03-13T11:26:39.446Z,49.33
2023-03-13T11:29:56.322Z,49.02
2023-03-13T11:33:06.134Z,48.70
2023-03-13T11:36:20.267Z,48.61
2023-03-13T11:39:56.671Z,47.89
2023-03-13T11:43:25.589Z,48.14
2023-03-13T11:46:45.638Z,48.17
2023-03-13T11:50:02.381Z,47.99
2023-03-13T11:53:22.487Z,46.72
2023-03-13T11:56:33.948Z,47.39
2023-03-13T11:59:47.083Z,47.35
2023-03-13T12:02:58.359Z,46.91
2023-03-13T12:06:13.260Z,46.43
2023-03-13T12:09:30.319Z,47.05
2023-03-13T12:12:41.867Z,46.91
2023-03-13T12:15:52.016Z,46.52
2023-03-13T12:18:58.862Z,46.71
2023-03-13T12:22:15.593Z,46.52
2023-03-13T12:25:25.529Z,46.22
2023-03-13T12:28:39.682Z,46.39
2023-03-13T12:31:54.666Z,47.01
2023-03-13T12:35:16.707Z,46.84
2023-03-13T12:38:27.779Z,47.01
2023-03-13T12:41:42.106Z,46.71
2023-03-13T12:44:48.693Z,46.66
2023-03-13T12:48:21.779Z,46.61
2023-03-13T12:51:41.334Z,46.70
2023-03-13T12:55:00.760Z,47.01
2023-03-13T12:58:31.088Z,47.29
2023-03-13T13:01:42.248Z,47.47
2023-03-13T13:04:50.954Z,47.47
2023-03-13T13:07:58.244Z,46.95
2023-03-13T13:11:34.765Z,47.04
2023-03-13T13:14:59.204Z,47.02
2023-03-13T13:18:16.176Z,46.89
2023-03-13T13:21:27.689Z,46.81
2023-03-13T13:24:52.743Z,46.95
2023-03-13T13:28:11.927Z,46.04
2023-03-13T13:31:59.544Z,45.78
2023-03-13T13:35:19.653Z,45.69
2023-03-13T13:38:52.857Z,46.04
2023-03-13T13:41:58.912Z,45.75
2023-03-13T13:45:08.069Z,45.43
2023-03-13T13:48:30.397Z,45.30
2023-03-13T13:51:37.375Z,45.69
2023-03-13T13:54:57.728Z,45.39
2023-03-13T13:58:06.126Z,45.76
2023-03-13T14:01:19.100Z,45.64
2023-03-13T14:04:29.633Z,45.94
2023-03-13T14:07:52.138Z,46.04
2023-03-13T14:11:11.373Z,46.19
2023-03-13T14:14:20.189Z,45.61
2023-03-13T14:17:25.937Z,46.27
2023-03-13T14:20:35.426Z,46.47
2023-03-13T14:23:43.602Z,46.64
2023-03-13T14:26:49.309Z,46.94
2023-03-13T14:30:05.493Z,47.48
2023-03-13T14:33:11.650Z,47.92
2023-03-13T14:36:15.877Z,48.48
2023-03-13T14:39:36.983Z,49.15
2023-03-13T14:42:47.881Z,50.05
2023-03-13T14:45:53.960Z,50.51
2023-03-13T14:48:58.731Z,51.56
2023-03-13T14:52:07.270Z,51.35
2023-03-13T14:55:33.809Z,51.62
2023-03-13T14:58:40.017Z,52.02
2023-03-13T15:01:47.168Z,52.26
2023-03-13T15:04:59.756Z,52.36
2023-03-13T15:08:05.836Z,52.57
2023-03-13T15:11:26.253Z,52.59
2023-03-13T15:14:41.512Z,52.80
2023-03-13T15:17:47.376Z,53.01
2023-03-13T15:20:55.026Z,52.96
2023-03-13T15:24:03.372Z,53.09
2023-03-13T15:27:16.983Z,53.07
2023-03-13T15:30:24.276Z,53.51
2023-03-13T15:33:31.798Z,53.57
2023-03-13T15:36:37.766Z,53.63
2023-03-13T15:39:43.827Z,53.92
2023-03-13T15:42:49.789Z,54.02
2023-03-13T15:45:55.936Z,54.15
2023-03-13T15:49:00.168Z,54.29
2023-03-13T15:52:12.785Z,54.38
2023-03-13T15:55:18.756Z,54.90
2023-03-13T15:58:25.909Z,54.92
2023-03-13T16:01:31.824Z,55.31
2023-03-13T16:04:40.013Z,55.94
2023-03-13T16:07:46.172Z,56.53
2023-03-13T16:10:52.847Z,56.65
2023-03-13T16:13:59.149Z,56.85
2023-03-13T16:17:12.131Z,57.10
2023-03-13T16:20:22.133Z,57.43
2023-03-13T16:23:27.967Z,57.41
2023-03-13T16:26:34.308Z,57.53
2023-03-13T16:29:40.167Z,57.77
2023-03-13T16:32:46.191Z,57.84
2023-03-13T16:35:54.660Z,57.89
2023-03-13T16:39:01.670Z,58.03
2023-03-13T16:42:07.894Z,58.08
2023-03-13T16:45:13.372Z,58.11
2023-03-13T16:48:20.418Z,57.79
2023-03-13T16:51:28.352Z,58.10
2023-03-13T16:54:34.114Z,58.07
2023-03-13T16:57:40.290Z,58.15
2023-03-13T17:00:56.223Z,58.15
2023-03-13T17:04:08.954Z,57.78
2023-03-13T17:07:17.909Z,58.27
2023-03-13T17:10:26.409Z,58.02
2023-03-13T17:13:32.370Z,58.01
2023-03-13T17:16:40.780Z,58.01
2023-03-13T17:19:47.229Z,58.06
2023-03-13T17:22:53.410Z,57.97
2023-03-13T17:25:58.628Z,57.90
2023-03-13T17:29:06.082Z,57.72
2023-03-13T17:32:13.521Z,57.92
2023-03-13T17:35:21.042Z,57.83
2023-03-13T17:38:27.139Z,57.91
2023-03-13T17:41:35.370Z,57.81
2023-03-13T17:44:41.791Z,57.85
2023-03-13T17:47:49.257Z,57.77
2023-03-13T17:50:55.136Z,57.99
2023-03-13T17:54:01.278Z,57.72
2023-03-13T17:57:14.998Z,57.59
2023-03-13T18:00:29.021Z,57.34
2023-03-13T18:03:34.846Z,57.29
2023-03-13T18:06:43.594Z,57.04
2023-03-13T18:09:49.433Z,56.60
2023-03-13T18:12:55.820Z,56.29
2023-03-13T18:16:01.600Z,55.95
2023-03-13T18:19:09.430Z,55.51
2023-03-13T18:22:18.255Z,54.98
2023-03-13T18:25:23.997Z,54.82
2023-03-13T18:28:29.964Z,54.34
2023-03-13T18:31:37.279Z,54.06
2023-03-13T18:34:43.560Z,53.96
2023-03-13T18:37:50.532Z,53.76
2023-03-13T18:40:56.286Z,53.52
2023-03-13T18:44:02.971Z,53.53
2023-03-13T18:47:14.777Z,53.37
2023-03-13T18:50:26.206Z,53.25
2023-03-13T18:53:32.114Z,53.02
2023-03-13T18:56:38.373Z,52.77
2023-03-13T18:59:42.749Z,52.65
2023-03-13T19:02:49.577Z,52.68
2023-03-13T19:05:55.635Z,52.39
2023-03-13T19:09:05.541Z,52.24
2023-03-13T19:12:15.712Z,52.04
2023-03-13T19:15:24.578Z,51.74
2023-03-13T19:18:30.536Z,51.62
2023-03-13T19:34:14.752Z,49.76
2023-03-13T19:37:20.801Z,49.86
2023-03-13T19:40:28.826Z,49.81
2023-03-13T19:43:34.591Z,49.88
2023-03-13T19:46:43.457Z,49.80
2023-03-13T19:49:52.228Z,49.68
2023-03-13T19:52:58.272Z,49.53
2023-03-13T19:56:06.969Z,49.10
2023-03-13T19:59:18.196Z,48.99
2023-03-13T20:02:24.269Z,49.17
2023-03-13T20:05:28.540Z,49.01
2023-03-13T20:08:34.497Z,49.37
2023-03-13T20:11:40.682Z,48.77
2023-03-13T20:14:44.832Z,49.14
2023-03-13T20:17:50.758Z,49.45
2023-03-13T20:20:56.651Z,49.16
2023-03-13T20:24:03.248Z,48.50
2023-03-13T20:27:09.259Z,49.04
2023-03-13T20:30:16.228Z,49.01
2023-03-13T20:33:22.067Z,49.13
2023-03-13T20:36:28.672Z,49.15
2023-03-13T20:39:35.608Z,49.23
2023-03-13T20:42:42.226Z,49.37
2023-03-13T20:45:48.734Z,49.35
2023-03-13T20:48:55.181Z,49.68
2023-03-13T20:52:01.638Z,49.78
2023-03-13T20:55:09.120Z,49.98
2023-03-13T20:58:14.981Z,50.40
2023-03-13T21:01:22.353Z,50.44
2023-03-13T21:04:28.493Z,50.64
2023-03-13T21:07:35.012Z,50.89
2023-03-13T21:10:41.584Z,50.93
2023-03-13T21:13:47.813Z,51.20
2023-03-13T21:16:51.994Z,51.09
2023-03-13T21:19:57.924Z,51.16
2023-03-13T21:23:03.778Z,51.35
2023-03-13T21:26:09.974Z,51.58
2023-03-13T21:29:14.481Z,51.65
2023-03-13T21:32:20.898Z,51.75
2023-03-13T21:35:27.292Z,52.24
2023-03-13T21:38:33.270Z,52.29
2023-03-13T21:41:39.159Z,52.52
2023-03-13T21:44:45.697Z,52.79
2023-03-13T21:47:51.489Z,53.00
2023-03-13T21:50:57.411Z,53.02
2023-03-13T21:54:03.268Z,53.18
2023-03-13T21:57:09.026Z,53.50
2023-03-13T22:00:16.696Z,53.47
2023-03-13T22:03:22.475Z,53.67
2023-03-13T22:06:28.394Z,53.90
2023-03-13T22:09:34.291Z,53.98
2023-03-13T22:12:40.177Z,53.83
2023-03-13T22:15:46.904Z,53.90
2023-03-13T22:18:52.940Z,54.00
2023-03-13T22:21:58.666Z,54.25
2023-03-13T22:25:04.749Z,54.28
2023-03-13T22:28:11.685Z,54.44
2023-03-13T22:31:18.576Z,54.51
2023-03-13T22:34:24.344Z,54.78
2023-03-13T22:37:30.284Z,55.08
2023-03-13T22:40:36.746Z,55.25
2023-03-13T22:43:42.480Z,55.38
2023-03-13T22:46:48.357Z,55.34
2023-03-13T22:49:55.044Z,55.39
2023-03-13T22:53:00.994Z,55.36
2023-03-13T22:56:10.003Z,55.54
2023-03-13T22:59:16.048Z,55.48
2023-03-13T23:02:21.975Z,55.43
2023-03-13T23:05:27.896Z,55.41
2023-03-13T23:08:33.759Z,55.67
2023-03-13T23:11:40.058Z,55.63
2023-03-13T23:14:44.250Z,55.59
2023-03-13T23:17:50.410Z,55.41
2023-03-13T23:20:56.881Z,55.67
2023-03-13T23:24:02.642Z,55.32
2023-03-13T23:27:08.498Z,55.49
2023-03-13T23:30:16.686Z,56.22
2023-03-13T23:33:22.862Z,56.45
2023-03-13T23:36:27.392Z,56.71
2023-03-13T23:39:33.141Z,56.30
2023-03-13T23:42:39.108Z,56.21
2023-03-13T23:45:45.064Z,56.33
2023-03-13T23:48:52.916Z,56.34
2023-03-13T23:51:58.698Z,56.63
2023-03-13T23:55:05.552Z,56.58
2023-03-13T23:58:11.321Z,56.43
